createdAt,value
2018-01-03T00:02:08.322Z,99262.46
2018-01-03T00:04:36.734Z,99271.43
2018-01-03T00:07:05.445Z,99281.00
2018-01-03T00:09:34.630Z,99277.09
2018-01-03T00:12:03.809Z,99274.11
2018-01-03T00:14:32.537Z,99272.96
2018-01-03T00:17:00.949Z,99277.23
2018-01-03T00:19:29.361Z,99268.89
2018-01-03T00:21:58.582Z,99277.78
2018-01-03T00:24:27.757Z,99282.14
2018-01-03T00:26:56.174Z,99282.65
2018-01-03T00:29:24.853Z,99277.23
2018-01-03T00:31:53.273Z,99279.54
2018-01-03T00:34:21.689Z,99279.72
2018-01-03T00:36:50.934Z,99279.30
2018-01-03T00:39:19.358Z,99280.41
2018-01-03T00:41:47.790Z,99272.38
2018-01-03T00:44:16.237Z,99268.70
2018-01-03T00:46:45.422Z,99262.18
2018-01-03T00:49:14.614Z,99267.17
2018-01-03T00:51:43.439Z,99270.30
2018-01-03T00:54:11.853Z,99266.83
2018-01-03T00:56:40.266Z,99272.08
2018-01-03T00:59:09.801Z,99270.34
2018-01-03T01:01:38.237Z,99268.28
2018-01-03T01:04:06.661Z,99267.78
2018-01-03T01:06:35.125Z,99257.05
2018-01-03T01:09:04.414Z,99257.60
2018-01-03T01:11:33.598Z,99260.51
2018-01-03T01:14:02.078Z,99257.97
2018-01-03T01:16:30.493Z,99258.48
2018-01-03T01:18:59.673Z,99262.58
2018-01-03T01:21:29.093Z,99256.67
2018-01-03T01:23:58.270Z,99246.16
2018-01-03T01:26:27.457Z,99241.95
2018-01-03T01:28:55.941Z,99251.98
2018-01-03T01:31:25.865Z,99243.25
2018-01-03T01:33:55.049Z,99235.10
2018-01-03T01:36:23.775Z,99238.56
2018-01-03T01:38:52.189Z,99234.88
2018-01-03T01:41:20.601Z,99227.58
2018-01-03T01:43:50.709Z,99225.16
2018-01-03T01:46:19.123Z,99223.19
2018-01-03T01:49:06.069Z,99219.48
2018-01-03T01:51:34.494Z,99221.86
2018-01-03T01:54:02.909Z,99222.78
2018-01-03T01:56:31.586Z,99213.95
2018-01-03T01:59:00.765Z,99213.91
2018-01-03T02:01:29.942Z,99212.73
2018-01-03T02:03:58.565Z,99219.88
2018-01-03T02:06:27.757Z,99223.23
2018-01-03T02:08:56.173Z,99227.62
2018-01-03T02:11:24.781Z,99233.47
2018-01-03T02:13:53.190Z,99235.64
2018-01-03T02:16:22.370Z,99235.86
2018-01-03T02:18:50.989Z,99234.13
2018-01-03T02:21:19.402Z,99229.88
2018-01-03T02:23:47.813Z,99231.69
2018-01-03T02:26:16.545Z,99236.06
2018-01-03T02:28:44.957Z,99238.20
2018-01-03T02:31:13.414Z,99236.95
2018-01-03T02:33:41.866Z,99232.52
2018-01-03T02:36:11.062Z,99232.31
2018-01-03T02:38:40.242Z,99236.45
2018-01-03T02:41:09.773Z,99233.05
2018-01-03T02:43:38.949Z,99225.06
2018-01-03T02:46:08.126Z,99230.45
2018-01-03T02:48:36.749Z,99226.08
2018-01-03T02:51:05.926Z,99224.67
2018-01-03T02:53:35.105Z,99221.88
2018-01-03T02:56:03.567Z,99216.30
2018-01-03T02:58:31.977Z,99214.65
2018-01-03T03:01:01.149Z,99218.54
2018-01-03T03:03:29.589Z,99215.65
2018-01-03T03:05:57.997Z,99210.84
2018-01-03T03:08:26.405Z,99208.30
2018-01-03T03:10:55.029Z,99206.21
2018-01-03T03:13:23.441Z,99212.40
2018-01-03T03:15:51.849Z,99210.86
2018-01-03T03:18:20.477Z,99212.12
2018-01-03T03:20:48.886Z,99213.58
2018-01-03T03:23:18.065Z,99203.34
2018-01-03T03:25:46.693Z,99200.49
2018-01-03T03:28:15.101Z,99199.57
2018-01-03T03:30:45.269Z,99201.00
2018-01-03T03:33:14.517Z,99202.39
2018-01-03T03:35:42.929Z,99218.81
2018-01-03T03:38:11.344Z,99220.30
2018-01-03T03:40:39.794Z,99216.59
2018-01-03T03:43:08.197Z,99223.75
2018-01-03T03:45:37.372Z,99227.44
2018-01-03T03:48:05.821Z,99226.61
2018-01-03T03:50:34.233Z,99228.41
2018-01-03T03:53:04.157Z,99230.80
2018-01-03T03:55:33.397Z,99235.02
2018-01-03T03:58:01.810Z,99247.36
2018-01-03T04:00:30.221Z,99248.33
2018-01-03T04:02:59.437Z,99250.03
2018-01-03T04:05:27.855Z,99252.27
2018-01-03T04:07:56.269Z,99262.93
2018-01-03T04:10:25.662Z,99268.34
2018-01-03T04:12:54.105Z,99272.47
2018-01-03T04:15:22.526Z,99278.33
2018-01-03T04:17:50.977Z,99288.12
2018-01-03T04:20:19.394Z,99290.32
2018-01-03T04:22:48.570Z,99293.13
2018-01-03T04:25:17.129Z,99305.55
2018-01-03T04:27:45.540Z,99309.32
2018-01-03T04:30:13.957Z,99302.83
2018-01-03T04:32:42.537Z,99303.79
2018-01-03T04:35:10.973Z,99302.13
2018-01-03T04:37:40.897Z,99297.73
2018-01-03T04:40:09.350Z,99301.27
2018-01-03T04:42:37.765Z,99312.86
2018-01-03T04:45:06.953Z,99317.18
2018-01-03T04:47:35.573Z,99320.67
2018-01-03T04:50:04.013Z,99326.05
2018-01-03T04:52:33.194Z,99334.82
2018-01-03T04:55:01.837Z,99341.58
2018-01-03T04:57:30.254Z,99343.22
2018-01-03T04:59:58.669Z,99348.18
2018-01-03T05:02:28.097Z,99343.66
2018-01-03T05:04:56.514Z,99352.28
2018-01-03T05:07:24.926Z,99341.56
2018-01-03T05:09:53.542Z,99346.78
2018-01-03T05:12:21.963Z,99345.37
2018-01-03T05:14:50.385Z,99352.06
2018-01-03T05:17:19.760Z,99347.61
2018-01-03T05:19:48.177Z,99350.00
2018-01-03T05:22:16.597Z,99348.44
2018-01-03T05:24:45.457Z,99348.60
2018-01-03T05:27:13.870Z,99350.73
2018-01-03T05:29:42.282Z,99349.90
2018-01-03T05:32:11.713Z,99345.95
2018-01-03T05:34:40.153Z,99353.80
2018-01-03T05:37:08.581Z,99352.94
2018-01-03T05:39:37.265Z,99358.04
2018-01-03T05:42:05.678Z,99354.30
2018-01-03T05:44:34.089Z,99357.36
2018-01-03T05:47:04.202Z,99364.34
2018-01-03T05:49:32.615Z,99359.19
2018-01-03T05:52:01.034Z,99367.04
2018-01-03T05:54:29.593Z,99369.60
2018-01-03T05:56:58.006Z,99366.38
2018-01-03T05:59:26.418Z,99369.78
2018-01-03T06:01:55.842Z,99380.02
2018-01-03T06:04:24.265Z,99375.41
2018-01-03T06:06:52.673Z,99376.83
2018-01-03T06:09:21.121Z,99384.54
2018-01-03T06:11:49.533Z,99381.57
2018-01-03T06:14:18.719Z,99391.77
2018-01-03T06:16:47.938Z,99390.63
2018-01-03T06:19:17.118Z,99399.31
2018-01-03T06:21:45.533Z,99399.81
2018-01-03T06:24:14.014Z,99394.86
2018-01-03T06:26:42.438Z,99402.04
2018-01-03T06:29:10.855Z,99406.48
2018-01-03T06:31:40.084Z,99408.78
2018-01-03T06:34:08.580Z,99405.69
2018-01-03T06:36:37.006Z,99399.59
2018-01-03T06:39:05.721Z,99396.59
2018-01-03T06:41:34.141Z,99396.88
2018-01-03T06:44:02.553Z,99402.88
2018-01-03T06:46:31.782Z,99407.10
2018-01-03T06:49:00.198Z,99411.21
2018-01-03T06:51:28.607Z,99410.62
2018-01-03T06:53:57.977Z,99413.56
2018-01-03T06:56:26.386Z,99410.60
2018-01-03T06:58:54.801Z,99418.89
2018-01-03T07:01:23.477Z,99416.01
2018-01-03T07:03:52.678Z,99423.45
2018-01-03T07:06:21.097Z,99418.53
2018-01-03T07:08:49.959Z,99423.48
2018-01-03T07:11:18.369Z,99426.04
2018-01-03T07:13:46.786Z,99425.22
2018-01-03T07:16:16.209Z,99424.91
2018-01-03T07:18:44.625Z,99430.48
2018-01-03T07:21:13.040Z,99433.66
2018-01-03T07:23:41.489Z,99439.30
2018-01-03T07:26:09.901Z,99443.20
2018-01-03T07:28:39.085Z,99447.31
2018-01-03T07:31:07.542Z,99438.81
2018-01-03T07:33:35.958Z,99438.00
2018-01-03T07:36:05.149Z,99436.25
2018-01-03T07:38:33.765Z,99440.25
2018-01-03T07:41:02.939Z,99433.30
2018-01-03T07:43:32.131Z,99429.03
2018-01-03T07:46:00.586Z,99429.72
2018-01-03T07:48:29.001Z,99429.72
2018-01-03T07:50:58.189Z,99426.98
2018-01-03T07:53:27.625Z,99428.19
2018-01-03T07:55:56.046Z,99431.88
2018-01-03T07:58:24.465Z,99429.47
2018-01-03T08:00:53.889Z,99430.22
2018-01-03T08:03:22.301Z,99433.44
2018-01-03T08:05:50.722Z,99433.93
2018-01-03T08:08:20.254Z,99425.04
2018-01-03T08:10:48.694Z,99426.97
2018-01-03T08:13:17.125Z,99424.08
2018-01-03T08:15:45.590Z,99418.03
2018-01-03T08:18:14.774Z,99416.91
2018-01-03T08:20:43.965Z,99415.67
2018-01-03T08:23:13.397Z,99418.25
2018-01-03T08:25:41.813Z,99417.80
2018-01-03T08:28:10.225Z,99426.00
2018-01-03T08:30:39.449Z,99419.55
2018-01-03T08:33:07.865Z,99420.30
2018-01-03T08:35:36.274Z,99417.30
2018-01-03T08:38:05.717Z,99405.49
2018-01-03T08:40:34.126Z,99404.20
2018-01-03T08:43:02.546Z,99406.41
2018-01-03T08:45:32.113Z,99401.80
2018-01-03T08:48:00.530Z,99404.00
2018-01-03T08:50:29.725Z,99398.16
2018-01-03T08:52:58.197Z,99393.95
2018-01-03T08:55:26.609Z,99392.28
2018-01-03T08:57:55.030Z,99389.81
2018-01-03T09:00:23.889Z,99386.38
2018-01-03T09:02:52.302Z,99383.86
2018-01-03T09:05:20.709Z,99387.42
2018-01-03T09:07:49.169Z,99372.16
2018-01-03T09:10:17.584Z,99376.69
2018-01-03T09:12:46.761Z,99367.97
2018-01-03T09:15:15.226Z,99358.30
2018-01-03T09:17:43.638Z,99358.27
2018-01-03T09:20:12.817Z,99350.66
2018-01-03T09:22:41.446Z,99356.03
2018-01-03T09:25:09.857Z,99346.84
2018-01-03T09:27:38.270Z,99347.45
2018-01-03T09:30:07.506Z,99341.02
2018-01-03T09:32:35.996Z,99338.72
2018-01-03T09:35:04.410Z,99334.45
2018-01-03T09:37:32.886Z,99326.99
2018-01-03T09:40:02.322Z,99327.98
2018-01-03T09:42:31.505Z,99328.55
2018-01-03T09:44:59.973Z,99318.03
2018-01-03T09:47:28.390Z,99313.84
2018-01-03T09:49:57.573Z,99315.62
2018-01-03T09:52:27.783Z,99308.06
2018-01-03T09:54:56.197Z,99309.84
2018-01-03T09:57:24.622Z,99308.53
2018-01-03T09:59:53.117Z,99297.07
2018-01-03T10:02:21.553Z,99295.23
2018-01-03T10:04:49.965Z,99292.06
2018-01-03T10:07:18.450Z,99288.22
2018-01-03T10:09:46.870Z,99281.43
2018-01-03T10:12:16.066Z,99274.03
2018-01-03T10:14:45.482Z,99274.31
2018-01-03T10:17:13.894Z,99271.82
2018-01-03T10:19:42.309Z,99276.49
2018-01-03T10:22:10.930Z,99275.48
2018-01-03T10:24:40.144Z,99260.20
2018-01-03T10:27:08.562Z,99264.34
2018-01-03T10:29:37.121Z,99250.39
2018-01-03T10:32:05.543Z,99254.73
2018-01-03T10:34:34.729Z,99240.52
2018-01-03T10:37:03.221Z,99246.42
2018-01-03T10:39:32.430Z,99244.94
2018-01-03T10:42:01.618Z,99235.17
2018-01-03T10:44:30.882Z,99232.00
2018-01-03T10:46:59.297Z,99233.65
2018-01-03T10:49:28.486Z,99222.99
2018-01-03T10:51:56.958Z,99223.67
2018-01-03T10:54:25.369Z,99216.42
2018-01-03T10:56:53.789Z,99218.38
2018-01-03T10:59:22.441Z,99216.63
2018-01-03T11:01:50.851Z,99214.65
2018-01-03T11:04:19.328Z,99205.98
2018-01-03T11:06:48.514Z,99206.38
2018-01-03T11:09:16.930Z,99201.03
2018-01-03T11:11:45.341Z,99196.69
2018-01-03T11:14:14.765Z,99198.45
2018-01-03T11:16:43.190Z,99184.81
2018-01-03T11:19:11.606Z,99189.50
2018-01-03T11:21:41.230Z,99183.71
2018-01-03T11:24:09.646Z,99171.06
2018-01-03T11:26:38.069Z,99179.47
2018-01-03T11:29:07.290Z,99174.77
2018-01-03T11:31:35.703Z,99163.55
2018-01-03T11:34:04.122Z,99169.32
2018-01-03T11:36:33.554Z,99157.23
2018-01-03T11:39:01.970Z,99155.25
2018-01-03T11:41:30.386Z,99152.84
2018-01-03T11:43:59.806Z,99150.00
2018-01-03T11:46:28.986Z,99143.16
2018-01-03T11:48:58.170Z,99146.95
2018-01-03T11:51:26.894Z,99138.14
2018-01-03T11:53:55.314Z,99132.27
2018-01-03T11:56:23.729Z,99128.61
2018-01-03T11:58:52.977Z,99131.28
2018-01-03T12:01:21.397Z,99128.95
2018-01-03T12:03:51.330Z,99107.17
2018-01-03T12:06:20.856Z,99124.86
2018-01-03T12:08:49.273Z,99122.63
2018-01-03T12:11:17.698Z,99119.33
2018-01-03T12:13:47.009Z,99118.22
2018-01-03T12:16:15.693Z,99108.67
2018-01-03T12:18:44.110Z,99105.10
2018-01-03T12:21:12.757Z,99100.72
2018-01-03T12:23:41.176Z,99106.47
2018-01-03T12:26:09.640Z,99098.47
2018-01-03T12:28:38.081Z,99095.11
2018-01-03T12:31:07.262Z,99088.05
2018-01-03T12:33:35.677Z,99083.89
2018-01-03T12:36:04.206Z,99083.00
2018-01-03T12:38:32.626Z,99082.19
2018-01-03T12:41:01.812Z,99083.42
2018-01-03T12:43:31.325Z,99076.14
2018-01-03T12:46:00.506Z,99071.29
2018-01-03T12:48:29.689Z,99078.02
2018-01-03T12:50:58.522Z,99068.02
2018-01-03T12:53:26.934Z,99068.59
2018-01-03T12:55:55.357Z,99077.84
2018-01-03T12:58:24.586Z,99071.14
2018-01-03T13:00:53.002Z,99069.30
2018-01-03T13:03:21.422Z,99069.52
2018-01-03T13:05:50.851Z,99064.11
2018-01-03T13:08:19.257Z,99058.05
2018-01-03T13:10:47.669Z,99062.48
2018-01-03T13:13:16.897Z,99057.55
2018-01-03T13:15:45.317Z,99055.63
2018-01-03T13:18:13.735Z,99054.44
2018-01-03T13:20:42.954Z,99046.81
2018-01-03T13:23:11.378Z,99054.28
2018-01-03T13:25:39.795Z,99057.59
2018-01-03T13:28:09.053Z,99056.97
2018-01-03T13:30:37.486Z,99065.48
2018-01-03T13:33:05.922Z,99060.14
2018-01-03T13:35:35.634Z,99064.06
2018-01-03T13:38:04.047Z,99062.08
2018-01-03T13:40:33.238Z,99062.98
2018-01-03T13:43:02.477Z,99072.34
2018-01-03T13:45:30.906Z,99061.53
2018-01-03T13:47:59.330Z,99054.47
2018-01-03T13:50:28.002Z,99058.13
2018-01-03T13:52:56.429Z,99062.79
2018-01-03T13:55:24.846Z,99068.73
2018-01-03T13:57:54.073Z,99073.64
2018-01-03T14:00:22.500Z,99070.29
2018-01-03T14:02:50.930Z,99065.33
2018-01-03T14:05:19.616Z,99072.34
2018-01-03T14:07:48.042Z,99068.20
2018-01-03T14:10:16.467Z,99062.95
2018-01-03T14:12:44.957Z,99067.21
2018-01-03T14:15:13.374Z,99064.18
2018-01-03T14:17:41.793Z,99060.32
2018-01-03T14:20:11.208Z,99060.52
2018-01-03T14:22:40.398Z,99062.77
2018-01-03T14:25:09.578Z,99069.88
2018-01-03T14:27:39.206Z,99060.38
2018-01-03T14:30:08.398Z,99057.05
2018-01-03T14:32:36.823Z,99055.15
2018-01-03T14:35:05.681Z,99064.27
2018-01-03T14:37:34.106Z,99066.70
2018-01-03T14:40:02.525Z,99069.14
2018-01-03T14:42:31.741Z,99065.58
2018-01-03T14:45:00.154Z,99065.42
2018-01-03T14:47:28.573Z,99069.22
2018-01-03T14:49:57.798Z,99067.85
2018-01-03T14:52:26.213Z,99064.15
2018-01-03T14:54:54.635Z,99075.06
2018-01-03T14:57:24.053Z,99072.84
2018-01-03T14:59:52.474Z,99064.72
2018-01-03T15:02:20.890Z,99062.52
2018-01-03T15:04:50.122Z,99072.20
2018-01-03T15:07:18.543Z,99080.86
2018-01-03T15:09:46.966Z,99084.00
2018-01-03T15:12:15.445Z,99085.67
2018-01-03T15:14:43.869Z,99084.86
2018-01-03T15:17:12.283Z,99084.91
2018-01-03T15:19:40.762Z,99078.45
2018-01-03T15:22:09.961Z,99081.00
2018-01-03T15:24:38.387Z,99078.20
2018-01-03T15:27:07.057Z,99074.23
2018-01-03T15:29:35.478Z,99074.36
2018-01-03T15:32:03.905Z,99065.05
2018-01-03T15:34:33.128Z,99069.16
2018-01-03T15:37:01.554Z,99071.12
2018-01-03T15:39:29.991Z,99070.50
2018-01-03T15:41:58.441Z,99074.84
2018-01-03T15:44:26.870Z,99074.86
2018-01-03T15:46:55.286Z,99072.77
2018-01-03T15:49:24.524Z,99072.52
2018-01-03T15:51:52.940Z,99065.28
2018-01-03T15:54:21.353Z,99069.72
2018-01-03T15:56:50.777Z,99065.91
2018-01-03T15:59:19.197Z,99067.92
2018-01-03T16:01:47.626Z,99066.95
2018-01-03T16:04:16.326Z,99064.13
2018-01-03T16:06:44.747Z,99075.64
2018-01-03T16:09:13.170Z,99075.30
2018-01-03T16:11:42.410Z,99078.72
2018-01-03T16:14:10.825Z,99083.27
2018-01-03T16:16:39.251Z,99085.68
2018-01-03T16:19:07.812Z,99089.82
2018-01-03T16:21:36.238Z,99089.56
2018-01-03T16:24:04.658Z,99095.11
2018-01-03T16:26:33.914Z,99094.59
2018-01-03T16:29:02.326Z,99092.63
2018-01-03T16:31:30.741Z,99098.36
2018-01-03T16:33:59.358Z,99098.75
2018-01-03T16:36:27.779Z,99097.70
2018-01-03T16:38:56.965Z,99098.85
2018-01-03T16:41:26.218Z,99101.11
2018-01-03T16:43:54.651Z,99108.27
2018-01-03T16:46:23.838Z,99114.00
2018-01-03T16:48:52.562Z,99114.07
2018-01-03T16:51:21.006Z,99110.86
2018-01-03T16:53:50.206Z,99112.30
2018-01-03T16:56:19.437Z,99115.53
2018-01-03T16:58:47.861Z,99112.28
2018-01-03T17:01:17.042Z,99113.88
2018-01-03T17:03:45.757Z,99110.69
2018-01-03T17:06:14.954Z,99122.77
2018-01-03T17:08:43.370Z,99119.00
2018-01-03T17:11:12.235Z,99121.59
2018-01-03T17:13:40.650Z,99127.13
2018-01-03T17:16:09.078Z,99134.05
2018-01-03T17:18:37.693Z,99130.90
2018-01-03T17:21:06.114Z,99124.27
2018-01-03T17:23:34.541Z,99124.31
2018-01-03T17:26:03.017Z,99125.13
2018-01-03T17:28:31.434Z,99123.29
2018-01-03T17:30:59.854Z,99118.48
2018-01-03T17:33:30.218Z,99119.88
2018-01-03T17:35:58.651Z,99118.31
2018-01-03T17:38:27.838Z,99116.69
2018-01-03T17:40:56.566Z,99109.57
2018-01-03T17:43:25.011Z,99104.14
2018-01-03T17:45:54.202Z,99115.44
2018-01-03T17:48:22.687Z,99104.98
2018-01-03T17:50:51.714Z,99100.05
2018-01-03T17:53:20.134Z,99102.64
2018-01-03T17:55:48.778Z,99092.64
2018-01-03T17:58:17.202Z,99098.42
2018-01-03T18:00:45.710Z,99098.64
2018-01-03T18:03:15.143Z,99097.09
2018-01-03T18:05:43.558Z,99089.41
2018-01-03T18:08:11.974Z,99088.80
2018-01-03T18:10:41.214Z,99075.21
2018-01-03T18:13:09.634Z,99071.58
2018-01-03T18:15:38.049Z,99070.59
2018-01-03T18:18:07.472Z,99066.78
2018-01-03T18:20:35.889Z,99063.64
2018-01-03T18:23:04.367Z,99060.12
2018-01-03T18:25:33.031Z,99062.87
2018-01-03T18:28:01.450Z,99071.67
2018-01-03T18:30:29.873Z,99076.79
2018-01-03T18:32:58.564Z,99080.43
2018-01-03T18:35:26.974Z,99085.43
2018-01-03T18:37:55.397Z,99081.73
2018-01-03T18:40:24.814Z,99081.91
2018-01-03T18:42:53.238Z,99086.20
2018-01-03T18:45:21.658Z,99086.57
2018-01-03T18:47:51.087Z,99081.11
2018-01-03T18:50:19.506Z,99076.23
2018-01-03T18:52:47.933Z,99074.35
2018-01-03T18:55:16.394Z,99082.09
2018-01-03T18:57:46.273Z,99078.89
2018-01-03T19:00:14.801Z,99080.46
2018-01-03T19:02:44.018Z,99085.58
2018-01-03T19:05:12.430Z,99088.70
2018-01-03T19:07:40.858Z,99086.73
2018-01-03T19:10:10.274Z,99091.81
2018-01-03T19:12:38.710Z,99093.95
2018-01-03T19:15:07.132Z,99092.91
2018-01-03T19:17:35.617Z,99093.13
2018-01-03T19:20:04.038Z,99100.92
2018-01-03T19:22:32.457Z,99090.94
2018-01-03T19:25:01.687Z,99093.66
2018-01-03T19:27:30.114Z,99089.01
2018-01-03T19:29:58.554Z,99086.31
2018-01-03T19:32:27.175Z,99085.73
2018-01-03T19:34:55.619Z,99086.13
2018-01-03T19:37:24.098Z,99083.13
2018-01-03T19:39:52.870Z,99084.83
2018-01-03T19:42:21.301Z,99084.89
2018-01-03T19:44:49.731Z,99087.42
2018-01-03T19:47:18.411Z,99074.70
2018-01-03T19:49:46.834Z,99081.36
2018-01-03T19:52:15.249Z,99075.95
2018-01-03T19:54:44.907Z,99076.66
2018-01-03T19:57:13.591Z,99067.07
2018-01-03T19:59:42.217Z,99057.97
2018-01-03T20:02:11.785Z,99055.44
2018-01-03T20:04:40.471Z,99054.27
2018-01-03T20:07:09.971Z,99043.97
2018-01-03T20:09:38.656Z,99039.61
2018-01-03T20:12:07.340Z,99034.17
2018-01-03T20:14:35.974Z,99032.38
2018-01-03T20:17:05.791Z,99034.94
2018-01-03T20:19:35.241Z,99022.44
2018-01-03T20:22:03.902Z,99023.42
2018-01-03T20:24:32.869Z,99031.22
2018-01-03T20:27:02.330Z,99027.47
2018-01-03T20:29:30.976Z,99017.16
2018-01-03T20:31:59.940Z,99020.48
2018-01-03T20:34:29.420Z,99024.98
2018-01-03T20:36:57.986Z,99023.53
2018-01-03T20:39:26.970Z,99021.41
2018-01-03T20:41:55.679Z,99014.73
2018-01-03T20:44:24.359Z,99015.77
2018-01-03T20:46:53.206Z,99002.36
2018-01-03T20:49:21.756Z,99000.64
2018-01-03T20:51:50.515Z,98991.75
2018-01-03T20:54:19.300Z,98982.97
2018-01-03T20:56:47.986Z,98978.19
2018-01-03T20:59:16.618Z,98973.80
2018-01-03T21:01:46.279Z,98977.03
2018-01-03T21:04:14.976Z,98966.73
2018-01-03T21:06:43.650Z,98961.67
2018-01-03T21:09:12.446Z,98950.76
2018-01-03T21:11:41.132Z,98946.73
2018-01-03T21:14:09.770Z,98939.67
2018-01-03T21:16:39.132Z,98936.92
2018-01-03T21:19:07.859Z,98928.81
2018-01-03T21:21:36.590Z,98928.98
2018-01-03T21:24:05.545Z,98921.86
2018-01-03T21:26:34.278Z,98922.81
2018-01-03T21:29:02.954Z,98917.45
2018-01-03T21:31:31.737Z,98915.38
2018-01-03T21:34:00.424Z,98917.16
2018-01-03T21:36:29.062Z,98916.80
2018-01-03T21:38:57.795Z,98904.02
2018-01-03T21:41:26.444Z,98906.17
2018-01-03T21:43:55.166Z,98903.93
2018-01-03T21:46:23.852Z,98905.53
2018-01-03T21:48:52.538Z,98903.96
2018-01-03T21:51:21.083Z,98901.06
2018-01-03T21:53:50.219Z,98903.66
2018-01-03T21:56:18.852Z,98900.49
2018-01-03T21:58:48.313Z,98905.62
2018-01-03T22:01:16.959Z,98895.13
2018-01-03T22:03:45.501Z,98899.53
2018-01-03T22:06:14.262Z,98899.50
2018-01-03T22:08:43.156Z,98899.73
2018-01-03T22:11:11.807Z,98901.13
2018-01-03T22:13:40.527Z,98900.49
2018-01-03T22:16:10.492Z,98895.66
2018-01-03T22:18:39.828Z,98890.16
2018-01-03T22:21:08.529Z,98891.39
2018-01-03T22:23:37.414Z,98896.30
2018-01-03T22:26:06.107Z,98898.69
2018-01-03T22:28:34.755Z,98898.97
2018-01-03T22:31:03.577Z,98891.08
2018-01-03T22:33:32.218Z,98887.25
2018-01-03T22:36:00.949Z,98882.53
2018-01-03T22:38:29.699Z,98891.25
2018-01-03T22:40:58.429Z,98887.20
2018-01-03T22:43:27.005Z,98885.31
2018-01-03T22:45:55.979Z,98883.27
2018-01-03T22:48:24.685Z,98877.59
2018-01-03T22:50:53.342Z,98878.67
2018-01-03T22:53:22.207Z,98872.86
2018-01-03T22:55:51.664Z,98868.76
2018-01-03T22:58:20.293Z,98863.02
2018-01-03T23:00:50.032Z,98856.74
2018-01-03T23:03:18.753Z,98851.16
2018-01-03T23:05:47.374Z,98860.87
2018-01-03T23:08:16.937Z,98862.78
2018-01-03T23:10:45.523Z,98860.76
2018-01-03T23:13:14.150Z,98863.38
2018-01-03T23:15:43.817Z,98867.09
2018-01-03T23:18:12.459Z,98875.30
2018-01-03T23:20:41.189Z,98876.59
2018-01-03T23:23:10.146Z,98876.56
2018-01-03T23:25:38.868Z,98869.84
2018-01-03T23:28:07.509Z,98873.01
2018-01-03T23:30:36.599Z,98868.53
2018-01-03T23:33:05.331Z,98879.17
2018-01-03T23:35:33.959Z,98885.28
2018-01-03T23:38:03.733Z,98899.16
2018-01-03T23:40:32.366Z,98882.19
2018-01-03T23:43:01.820Z,98880.27
2018-01-03T23:45:30.603Z,98884.73
2018-01-03T23:47:59.254Z,98881.25
2018-01-03T23:50:27.975Z,98889.36
2018-01-03T23:52:56.660Z,98885.84
2018-01-03T23:55:25.347Z,98891.31
2018-01-03T23:57:53.994Z,98893.36
